sensor_id;sensor_type;location;lat;lon;timestamp;P1;durP1;ratioP1;P2;durP2;ratioP2
18738;SDS011;9498;51.862;19.460;2022-08-19T00:01:27;19.43;;;10.93;;
18738;SDS011;9498;51.862;19.460;2022-08-19T00:03:55;19.17;;;11.23;;
18738;SDS011;9498;51.862;19.460;2022-08-19T00:06:22;16.80;;;10.50;;
18738;SDS011;9498;51.862;19.460;2022-08-19T00:08:51;18.67;;;11.50;;
18738;SDS011;9498;51.862;19.460;2022-08-19T00:11:18;19.00;;;10.60;;
18738;SDS011;9498;51.862;19.460;2022-08-19T00:13:46;18.90;;;11.60;;
18738;SDS011;9498;51.862;19.460;2022-08-19T00:16:15;21.77;;;11.47;;
18738;SDS011;9498;51.862;19.460;2022-08-19T00:18:44;19.93;;;11.30;;
18738;SDS011;9498;51.862;19.460;2022-08-19T00:21:12;15.63;;;10.67;;
18738;SDS011;9498;51.862;19.460;2022-08-19T00:23:39;16.60;;;10.57;;
18738;SDS011;9498;51.862;19.460;2022-08-19T00:26:09;18.50;;;11.60;;
18738;SDS011;9498;51.862;19.460;2022-08-19T00:28:37;16.80;;;10.53;;
18738;SDS011;9498;51.862;19.460;2022-08-19T00:31:05;21.43;;;11.23;;
18738;SDS011;9498;51.862;19.460;2022-08-19T00:33:32;17.83;;;10.87;;
18738;SDS011;9498;51.862;19.460;2022-08-19T00:36:00;19.43;;;11.93;;
18738;SDS011;9498;51.862;19.460;2022-08-19T00:38:28;18.03;;;12.27;;
18738;SDS011;9498;51.862;19.460;2022-08-19T00:40:55;19.93;;;11.33;;
18738;SDS011;9498;51.862;19.460;2022-08-19T00:43:25;21.37;;;12.03;;
18738;SDS011;9498;51.862;19.460;2022-08-19T00:45:53;18.80;;;11.77;;
18738;SDS011;9498;51.862;19.460;2022-08-19T00:48:20;18.07;;;11.67;;
18738;SDS011;9498;51.862;19.460;2022-08-19T00:50:48;19.03;;;11.40;;
18738;SDS011;9498;51.862;19.460;2022-08-19T00:53:20;20.97;;;11.90;;
18738;SDS011;9498;51.862;19.460;2022-08-19T00:55:49;16.83;;;11.77;;
18738;SDS011;9498;51.862;19.460;2022-08-19T00:58:18;23.03;;;12.03;;
18738;SDS011;9498;51.862;19.460;2022-08-19T01:00:48;18.03;;;12.37;;
18738;SDS011;9498;51.862;19.460;2022-08-19T01:03:16;20.17;;;12.70;;
18738;SDS011;9498;51.862;19.460;2022-08-19T01:05:44;16.23;;;11.03;;
18738;SDS011;9498;51.862;19.460;2022-08-19T01:08:11;20.43;;;12.37;;
18738;SDS011;9498;51.862;19.460;2022-08-19T01:10:40;19.97;;;12.63;;
18738;SDS011;9498;51.862;19.460;2022-08-19T01:13:08;20.70;;;13.17;;
18738;SDS011;9498;51.862;19.460;2022-08-19T01:15:47;17.07;;;11.77;;
18738;SDS011;9498;51.862;19.460;2022-08-19T01:18:17;17.77;;;12.13;;
18738;SDS011;9498;51.862;19.460;2022-08-19T01:20:46;19.83;;;12.13;;
18738;SDS011;9498;51.862;19.460;2022-08-19T01:23:15;22.40;;;12.17;;
18738;SDS011;9498;51.862;19.460;2022-08-19T01:25:44;18.50;;;12.37;;
18738;SDS011;9498;51.862;19.460;2022-08-19T01:28:15;19.23;;;12.43;;
18738;SDS011;9498;51.862;19.460;2022-08-19T01:30:43;21.37;;;12.47;;
18738;SDS011;9498;51.862;19.460;2022-08-19T01:33:10;19.57;;;12.27;;
18738;SDS011;9498;51.862;19.460;2022-08-19T01:35:38;21.17;;;12.70;;
18738;SDS011;9498;51.862;19.460;2022-08-19T01:38:05;21.60;;;12.53;;
18738;SDS011;9498;51.862;19.460;2022-08-19T01:40:35;20.93;;;12.50;;
18738;SDS011;9498;51.862;19.460;2022-08-19T01:43:03;19.33;;;12.70;;
18738;SDS011;9498;51.862;19.460;2022-08-19T01:45:32;20.17;;;12.67;;
18738;SDS011;9498;51.862;19.460;2022-08-19T01:48:00;17.37;;;11.83;;
18738;SDS011;9498;51.862;19.460;2022-08-19T01:50:27;20.07;;;12.17;;
18738;SDS011;9498;51.862;19.460;2022-08-19T01:52:55;20.20;;;11.67;;
18738;SDS011;9498;51.862;19.460;2022-08-19T01:55:22;19.20;;;12.03;;
18738;SDS011;9498;51.862;19.460;2022-08-19T01:57:52;16.20;;;11.07;;
18738;SDS011;9498;51.862;19.460;2022-08-19T02:00:21;20.97;;;11.53;;
18738;SDS011;9498;51.862;19.460;2022-08-19T02:02:49;18.97;;;12.60;;
18738;SDS011;9498;51.862;19.460;2022-08-19T02:05:16;19.97;;;11.73;;
18738;SDS011;9498;51.862;19.460;2022-08-19T02:07:46;19.40;;;12.17;;
18738;SDS011;9498;51.862;19.460;2022-08-19T02:10:14;24.17;;;11.73;;
18738;SDS011;9498;51.862;19.460;2022-08-19T02:12:43;20.07;;;11.80;;
18738;SDS011;9498;51.862;19.460;2022-08-19T02:15:12;23.27;;;11.63;;
18738;SDS011;9498;51.862;19.460;2022-08-19T02:17:39;20.17;;;11.47;;
18738;SDS011;9498;51.862;19.460;2022-08-19T02:20:07;18.53;;;12.23;;
18738;SDS011;9498;51.862;19.460;2022-08-19T02:22:34;16.20;;;11.10;;
18738;SDS011;9498;51.862;19.460;2022-08-19T02:25:02;21.23;;;12.20;;
18738;SDS011;9498;51.862;19.460;2022-08-19T02:27:30;22.13;;;11.73;;
18738;SDS011;9498;51.862;19.460;2022-08-19T02:29:58;18.47;;;11.23;;
18738;SDS011;9498;51.862;19.460;2022-08-19T02:32:27;17.60;;;10.90;;
18738;SDS011;9498;51.862;19.460;2022-08-19T02:34:55;19.70;;;11.27;;
18738;SDS011;9498;51.862;19.460;2022-08-19T02:37:22;16.27;;;10.97;;
18738;SDS011;9498;51.862;19.460;2022-08-19T02:40:07;19.47;;;11.63;;
18738;SDS011;9498;51.862;19.460;2022-08-19T02:42:35;20.33;;;11.33;;
18738;SDS011;9498;51.862;19.460;2022-08-19T02:45:02;16.80;;;11.23;;
18738;SDS011;9498;51.862;19.460;2022-08-19T02:47:31;19.80;;;11.37;;
18738;SDS011;9498;51.862;19.460;2022-08-19T02:49:59;16.60;;;11.27;;
18738;SDS011;9498;51.862;19.460;2022-08-19T02:52:27;19.23;;;10.93;;
18738;SDS011;9498;51.862;19.460;2022-08-19T02:54:54;17.30;;;11.30;;
18738;SDS011;9498;51.862;19.460;2022-08-19T02:57:22;18.07;;;11.07;;
18738;SDS011;9498;51.862;19.460;2022-08-19T02:59:49;15.97;;;10.63;;
18738;SDS011;9498;51.862;19.460;2022-08-19T03:02:17;16.30;;;10.30;;
18738;SDS011;9498;51.862;19.460;2022-08-19T03:04:45;20.63;;;12.27;;
18738;SDS011;9498;51.862;19.460;2022-08-19T03:07:13;22.00;;;11.70;;
18738;SDS011;9498;51.862;19.460;2022-08-19T03:09:40;20.37;;;12.20;;
18738;SDS011;9498;51.862;19.460;2022-08-19T03:12:08;19.90;;;12.00;;
18738;SDS011;9498;51.862;19.460;2022-08-19T03:14:36;18.37;;;11.83;;
18738;SDS011;9498;51.862;19.460;2022-08-19T03:17:04;18.63;;;11.10;;
18738;SDS011;9498;51.862;19.460;2022-08-19T03:19:31;17.30;;;11.10;;
18738;SDS011;9498;51.862;19.460;2022-08-19T03:22:00;17.43;;;11.67;;
18738;SDS011;9498;51.862;19.460;2022-08-19T03:24:29;23.73;;;12.50;;
18738;SDS011;9498;51.862;19.460;2022-08-19T03:26:56;20.57;;;12.37;;
18738;SDS011;9498;51.862;19.460;2022-08-19T03:29:25;21.10;;;12.33;;
18738;SDS011;9498;51.862;19.460;2022-08-19T03:31:52;17.73;;;11.70;;
18738;SDS011;9498;51.862;19.460;2022-08-19T03:34:21;18.53;;;12.33;;
18738;SDS011;9498;51.862;19.460;2022-08-19T03:36:51;22.83;;;11.73;;
18738;SDS011;9498;51.862;19.460;2022-08-19T03:39:20;22.33;;;12.10;;
18738;SDS011;9498;51.862;19.460;2022-08-19T03:41:48;17.47;;;11.73;;
18738;SDS011;9498;51.862;19.460;2022-08-19T03:44:17;15.60;;;11.57;;
18738;SDS011;9498;51.862;19.460;2022-08-19T03:46:45;17.57;;;11.17;;
18738;SDS011;9498;51.862;19.460;2022-08-19T03:49:12;22.63;;;11.83;;
18738;SDS011;9498;51.862;19.460;2022-08-19T03:51:40;19.47;;;11.93;;
18738;SDS011;9498;51.862;19.460;2022-08-19T03:54:10;19.30;;;12.03;;
18738;SDS011;9498;51.862;19.460;2022-08-19T03:56:39;18.50;;;12.37;;
18738;SDS011;9498;51.862;19.460;2022-08-19T03:59:08;20.47;;;12.57;;
18738;SDS011;9498;51.862;19.460;2022-08-19T04:01:36;22.80;;;12.40;;
18738;SDS011;9498;51.862;19.460;2022-08-19T04:04:03;20.27;;;12.37;;
18738;SDS011;9498;51.862;19.460;2022-08-19T04:06:32;20.10;;;12.30;;
18738;SDS011;9498;51.862;19.460;2022-08-19T04:09:01;22.37;;;12.83;;
18738;SDS011;9498;51.862;19.460;2022-08-19T04:11:30;20.37;;;11.83;;
18738;SDS011;9498;51.862;19.460;2022-08-19T04:13:59;23.30;;;12.50;;
18738;SDS011;9498;51.862;19.460;2022-08-19T04:16:28;23.10;;;12.53;;
18738;SDS011;9498;51.862;19.460;2022-08-19T04:18:55;20.37;;;12.03;;
18738;SDS011;9498;51.862;19.460;2022-08-19T04:21:24;19.40;;;12.27;;
18738;SDS011;9498;51.862;19.460;2022-08-19T04:23:52;19.63;;;12.67;;
18738;SDS011;9498;51.862;19.460;2022-08-19T04:26:20;19.03;;;12.20;;
18738;SDS011;9498;51.862;19.460;2022-08-19T04:28:48;18.33;;;12.23;;
18738;SDS011;9498;51.862;19.460;2022-08-19T04:31:19;22.90;;;12.10;;
18738;SDS011;9498;51.862;19.460;2022-08-19T04:33:46;19.23;;;11.77;;
18738;SDS011;9498;51.862;19.460;2022-08-19T04:36:17;18.03;;;11.70;;
18738;SDS011;9498;51.862;19.460;2022-08-19T04:38:45;24.07;;;12.20;;
18738;SDS011;9498;51.862;19.460;2022-08-19T04:41:13;17.33;;;11.77;;
18738;SDS011;9498;51.862;19.460;2022-08-19T04:43:58;22.90;;;11.43;;
18738;SDS011;9498;51.862;19.460;2022-08-19T04:46:26;21.87;;;11.73;;
18738;SDS011;9498;51.862;19.460;2022-08-19T04:48:55;18.67;;;11.77;;
18738;SDS011;9498;51.862;19.460;2022-08-19T04:51:22;20.23;;;12.17;;
18738;SDS011;9498;51.862;19.460;2022-08-19T04:53:50;21.60;;;11.50;;
18738;SDS011;9498;51.862;19.460;2022-08-19T04:56:18;17.57;;;11.40;;
18738;SDS011;9498;51.862;19.460;2022-08-19T04:58:46;15.27;;;11.10;;
18738;SDS011;9498;51.862;19.460;2022-08-19T05:01:14;22.10;;;11.37;;
18738;SDS011;9498;51.862;19.460;2022-08-19T05:03:43;20.13;;;11.63;;
18738;SDS011;9498;51.862;19.460;2022-08-19T05:06:11;19.03;;;11.10;;
18738;SDS011;9498;51.862;19.460;2022-08-19T05:08:40;19.80;;;11.07;;
18738;SDS011;9498;51.862;19.460;2022-08-19T05:11:08;18.50;;;11.53;;
18738;SDS011;9498;51.862;19.460;2022-08-19T05:13:36;16.23;;;10.50;;
18738;SDS011;9498;51.862;19.460;2022-08-19T05:16:04;19.17;;;10.83;;
18738;SDS011;9498;51.862;19.460;2022-08-19T05:18:31;19.40;;;10.93;;
18738;SDS011;9498;51.862;19.460;2022-08-19T05:21:18;21.53;;;10.80;;
18738;SDS011;9498;51.862;19.460;2022-08-19T05:24:03;16.07;;;9.80;;
18738;SDS011;9498;51.862;19.460;2022-08-19T05:26:34;17.70;;;9.87;;
18738;SDS011;9498;51.862;19.460;2022-08-19T05:29:01;15.67;;;9.80;;
18738;SDS011;9498;51.862;19.460;2022-08-19T05:31:29;19.30;;;10.77;;
18738;SDS011;9498;51.862;19.460;2022-08-19T05:33:57;14.50;;;9.87;;
18738;SDS011;9498;51.862;19.460;2022-08-19T05:36:26;13.60;;;9.17;;
18738;SDS011;9498;51.862;19.460;2022-08-19T05:38:54;18.63;;;10.33;;
18738;SDS011;9498;51.862;19.460;2022-08-19T05:41:22;14.30;;;9.90;;
18738;SDS011;9498;51.862;19.460;2022-08-19T05:43:55;18.27;;;9.57;;
18738;SDS011;9498;51.862;19.460;2022-08-19T05:46:23;16.87;;;9.40;;
18738;SDS011;9498;51.862;19.460;2022-08-19T05:48:50;16.00;;;9.23;;
18738;SDS011;9498;51.862;19.460;2022-08-19T05:51:17;17.30;;;9.60;;
18738;SDS011;9498;51.862;19.460;2022-08-19T05:53:46;12.07;;;9.03;;
18738;SDS011;9498;51.862;19.460;2022-08-19T05:56:14;18.17;;;8.97;;
18738;SDS011;9498;51.862;19.460;2022-08-19T05:58:42;17.90;;;9.20;;
18738;SDS011;9498;51.862;19.460;2022-08-19T06:01:11;16.57;;;8.73;;
18738;SDS011;9498;51.862;19.460;2022-08-19T06:03:39;12.60;;;9.00;;
18738;SDS011;9498;51.862;19.460;2022-08-19T06:06:07;18.17;;;8.90;;
18738;SDS011;9498;51.862;19.460;2022-08-19T06:08:34;15.50;;;9.33;;
18738;SDS011;9498;51.862;19.460;2022-08-19T06:11:14;17.87;;;9.23;;
18738;SDS011;9498;51.862;19.460;2022-08-19T06:13:42;14.10;;;8.73;;
18738;SDS011;9498;51.862;19.460;2022-08-19T06:16:10;13.77;;;8.70;;
18738;SDS011;9498;51.862;19.460;2022-08-19T06:18:37;19.33;;;9.57;;
18738;SDS011;9498;51.862;19.460;2022-08-19T06:21:04;16.63;;;9.47;;
18738;SDS011;9498;51.862;19.460;2022-08-19T06:23:32;17.30;;;9.17;;
18738;SDS011;9498;51.862;19.460;2022-08-19T06:25:59;13.80;;;9.07;;
18738;SDS011;9498;51.862;19.460;2022-08-19T06:28:28;14.93;;;9.20;;
18738;SDS011;9498;51.862;19.460;2022-08-19T06:30:55;17.00;;;9.77;;
18738;SDS011;9498;51.862;19.460;2022-08-19T06:33:23;13.63;;;9.63;;
18738;SDS011;9498;51.862;19.460;2022-08-19T06:35:50;15.13;;;9.57;;
18738;SDS011;9498;51.862;19.460;2022-08-19T06:38:17;19.60;;;9.90;;
18738;SDS011;9498;51.862;19.460;2022-08-19T06:40:48;17.23;;;9.50;;
18738;SDS011;9498;51.862;19.460;2022-08-19T06:43:15;15.37;;;9.63;;
18738;SDS011;9498;51.862;19.460;2022-08-19T06:45:44;16.07;;;10.23;;
18738;SDS011;9498;51.862;19.460;2022-08-19T06:48:11;17.97;;;10.23;;
18738;SDS011;9498;51.862;19.460;2022-08-19T06:50:39;15.00;;;9.50;;
18738;SDS011;9498;51.862;19.460;2022-08-19T06:53:06;17.93;;;10.83;;
18738;SDS011;9498;51.862;19.460;2022-08-19T06:55:33;16.03;;;9.87;;
18738;SDS011;9498;51.862;19.460;2022-08-19T06:58:02;12.60;;;9.30;;
18738;SDS011;9498;51.862;19.460;2022-08-19T07:00:29;20.97;;;9.67;;
18738;SDS011;9498;51.862;19.460;2022-08-19T07:02:58;14.10;;;9.80;;
18738;SDS011;9498;51.862;19.460;2022-08-19T07:05:25;18.77;;;9.60;;
18738;SDS011;9498;51.862;19.460;2022-08-19T07:07:53;13.40;;;9.80;;
18738;SDS011;9498;51.862;19.460;2022-08-19T07:10:21;15.17;;;9.80;;
18738;SDS011;9498;51.862;19.460;2022-08-19T07:12:48;14.77;;;9.37;;
18738;SDS011;9498;51.862;19.460;2022-08-19T07:15:16;15.63;;;9.47;;
18738;SDS011;9498;51.862;19.460;2022-08-19T07:17:46;15.17;;;9.47;;
18738;SDS011;9498;51.862;19.460;2022-08-19T07:20:15;15.00;;;9.67;;
18738;SDS011;9498;51.862;19.460;2022-08-19T07:22:42;19.00;;;10.70;;
18738;SDS011;9498;51.862;19.460;2022-08-19T07:25:10;13.27;;;9.47;;
18738;SDS011;9498;51.862;19.460;2022-08-19T07:27:38;12.43;;;9.37;;
18738;SDS011;9498;51.862;19.460;2022-08-19T07:30:06;15.07;;;9.33;;
18738;SDS011;9498;51.862;19.460;2022-08-19T07:32:35;15.03;;;9.87;;
18738;SDS011;9498;51.862;19.460;2022-08-19T07:35:02;16.80;;;10.07;;
18738;SDS011;9498;51.862;19.460;2022-08-19T07:37:32;15.77;;;10.27;;
18738;SDS011;9498;51.862;19.460;2022-08-19T07:40:00;15.03;;;10.17;;
18738;SDS011;9498;51.862;19.460;2022-08-19T07:42:27;17.00;;;10.07;;
18738;SDS011;9498;51.862;19.460;2022-08-19T07:44:55;15.33;;;10.27;;
18738;SDS011;9498;51.862;19.460;2022-08-19T07:47:23;17.33;;;10.07;;
18738;SDS011;9498;51.862;19.460;2022-08-19T07:49:50;17.03;;;10.27;;
18738;SDS011;9498;51.862;19.460;2022-08-19T07:52:17;14.27;;;10.03;;
18738;SDS011;9498;51.862;19.460;2022-08-19T07:54:46;16.87;;;10.40;;
18738;SDS011;9498;51.862;19.460;2022-08-19T07:57:15;19.17;;;11.30;;
18738;SDS011;9498;51.862;19.460;2022-08-19T07:59:44;14.70;;;10.17;;
18738;SDS011;9498;51.862;19.460;2022-08-19T08:02:11;20.17;;;10.30;;
18738;SDS011;9498;51.862;19.460;2022-08-19T08:04:38;14.93;;;10.60;;
18738;SDS011;9498;51.862;19.460;2022-08-19T08:07:22;16.03;;;10.27;;
18738;SDS011;9498;51.862;19.460;2022-08-19T08:10:08;16.67;;;10.10;;
18738;SDS011;9498;51.862;19.460;2022-08-19T08:12:38;16.27;;;10.90;;
18738;SDS011;9498;51.862;19.460;2022-08-19T08:15:07;18.10;;;11.83;;
18738;SDS011;9498;51.862;19.460;2022-08-19T08:17:35;21.63;;;10.83;;
18738;SDS011;9498;51.862;19.460;2022-08-19T08:20:04;18.77;;;10.97;;
18738;SDS011;9498;51.862;19.460;2022-08-19T08:22:32;21.27;;;11.13;;
18738;SDS011;9498;51.862;19.460;2022-08-19T08:25:19;18.97;;;11.07;;
18738;SDS011;9498;51.862;19.460;2022-08-19T08:27:48;17.63;;;11.30;;
18738;SDS011;9498;51.862;19.460;2022-08-19T08:30:20;17.97;;;10.57;;
18738;SDS011;9498;51.862;19.460;2022-08-19T08:32:49;20.90;;;11.43;;
18738;SDS011;9498;51.862;19.460;2022-08-19T08:35:17;17.77;;;10.80;;
18738;SDS011;9498;51.862;19.460;2022-08-19T08:37:45;15.97;;;10.07;;
18738;SDS011;9498;51.862;19.460;2022-08-19T08:42:58;21.27;;;11.47;;
18738;SDS011;9498;51.862;19.460;2022-08-19T08:45:30;17.27;;;10.70;;
18738;SDS011;9498;51.862;19.460;2022-08-19T08:47:58;15.90;;;10.30;;
18738;SDS011;9498;51.862;19.460;2022-08-19T08:50:30;20.07;;;10.63;;
18738;SDS011;9498;51.862;19.460;2022-08-19T08:53:00;16.17;;;10.73;;
18738;SDS011;9498;51.862;19.460;2022-08-19T08:55:29;20.97;;;11.13;;
18738;SDS011;9498;51.862;19.460;2022-08-19T08:57:59;19.43;;;11.43;;
18738;SDS011;9498;51.862;19.460;2022-08-19T09:00:28;18.57;;;11.23;;
18738;SDS011;9498;51.862;19.460;2022-08-19T09:02:57;21.30;;;11.17;;
18738;SDS011;9498;51.862;19.460;2022-08-19T09:05:26;22.33;;;11.23;;
18738;SDS011;9498;51.862;19.460;2022-08-19T09:07:58;19.37;;;11.50;;
18738;SDS011;9498;51.862;19.460;2022-08-19T09:10:28;24.27;;;11.40;;
18738;SDS011;9498;51.862;19.460;2022-08-19T09:12:59;16.53;;;10.77;;
18738;SDS011;9498;51.862;19.460;2022-08-19T09:15:32;15.87;;;10.47;;
18738;SDS011;9498;51.862;19.460;2022-08-19T09:18:02;17.90;;;10.60;;
18738;SDS011;9498;51.862;19.460;2022-08-19T09:20:30;21.23;;;11.30;;
18738;SDS011;9498;51.862;19.460;2022-08-19T09:22:57;19.23;;;10.13;;
18738;SDS011;9498;51.862;19.460;2022-08-19T09:25:25;21.57;;;11.20;;
18738;SDS011;9498;51.862;19.460;2022-08-19T09:27:53;17.27;;;10.23;;
18738;SDS011;9498;51.862;19.460;2022-08-19T09:30:23;15.97;;;10.20;;
18738;SDS011;9498;51.862;19.460;2022-08-19T09:32:51;15.73;;;9.90;;
18738;SDS011;9498;51.862;19.460;2022-08-19T09:35:19;15.33;;;9.90;;
18738;SDS011;9498;51.862;19.460;2022-08-19T09:37:47;18.50;;;10.43;;
18738;SDS011;9498;51.862;19.460;2022-08-19T09:40:15;18.10;;;9.90;;
18738;SDS011;9498;51.862;19.460;2022-08-19T09:42:43;15.53;;;10.67;;
18738;SDS011;9498;51.862;19.460;2022-08-19T09:45:12;13.70;;;9.63;;
18738;SDS011;9498;51.862;19.460;2022-08-19T09:47:41;21.03;;;10.37;;
18738;SDS011;9498;51.862;19.460;2022-08-19T09:50:09;14.43;;;9.87;;
18738;SDS011;9498;51.862;19.460;2022-08-19T09:52:37;15.30;;;9.87;;
18738;SDS011;9498;51.862;19.460;2022-08-19T09:55:05;21.10;;;11.20;;
18738;SDS011;9498;51.862;19.460;2022-08-19T09:57:33;18.07;;;9.90;;
18738;SDS011;9498;51.862;19.460;2022-08-19T10:00:00;16.73;;;10.00;;
18738;SDS011;9498;51.862;19.460;2022-08-19T10:02:28;19.83;;;10.07;;
18738;SDS011;9498;51.862;19.460;2022-08-19T10:04:56;14.03;;;10.20;;
18738;SDS011;9498;51.862;19.460;2022-08-19T10:07:50;14.17;;;10.13;;
18738;SDS011;9498;51.862;19.460;2022-08-19T10:10:17;17.47;;;10.33;;
18738;SDS011;9498;51.862;19.460;2022-08-19T10:12:44;20.70;;;9.57;;
18738;SDS011;9498;51.862;19.460;2022-08-19T10:15:12;19.43;;;10.43;;
18738;SDS011;9498;51.862;19.460;2022-08-19T10:17:40;17.40;;;10.60;;
18738;SDS011;9498;51.862;19.460;2022-08-19T10:20:09;15.13;;;10.23;;
18738;SDS011;9498;51.862;19.460;2022-08-19T10:22:37;23.20;;;10.57;;
18738;SDS011;9498;51.862;19.460;2022-08-19T10:25:05;17.30;;;9.63;;
18738;SDS011;9498;51.862;19.460;2022-08-19T10:27:32;18.13;;;10.13;;
18738;SDS011;9498;51.862;19.460;2022-08-19T10:30:00;17.30;;;9.83;;
18738;SDS011;9498;51.862;19.460;2022-08-19T10:32:27;16.53;;;9.57;;
18738;SDS011;9498;51.862;19.460;2022-08-19T10:34:55;15.83;;;9.60;;
18738;SDS011;9498;51.862;19.460;2022-08-19T10:37:24;18.57;;;9.00;;
18738;SDS011;9498;51.862;19.460;2022-08-19T10:39:51;20.43;;;9.97;;
18738;SDS011;9498;51.862;19.460;2022-08-19T10:42:18;17.93;;;10.13;;
18738;SDS011;9498;51.862;19.460;2022-08-19T10:44:46;19.00;;;10.27;;
18738;SDS011;9498;51.862;19.460;2022-08-19T10:47:13;16.17;;;9.80;;
18738;SDS011;9498;51.862;19.460;2022-08-19T10:49:41;15.17;;;9.73;;
18738;SDS011;9498;51.862;19.460;2022-08-19T10:52:35;18.03;;;10.10;;
18738;SDS011;9498;51.862;19.460;2022-08-19T10:55:04;17.57;;;10.20;;
18738;SDS011;9498;51.862;19.460;2022-08-19T10:57:49;14.37;;;9.77;;
18738;SDS011;9498;51.862;19.460;2022-08-19T11:00:17;18.87;;;10.03;;
18738;SDS011;9498;51.862;19.460;2022-08-19T11:02:45;17.73;;;10.17;;
18738;SDS011;9498;51.862;19.460;2022-08-19T11:05:12;15.67;;;9.80;;
18738;SDS011;9498;51.862;19.460;2022-08-19T11:07:41;15.73;;;10.23;;
18738;SDS011;9498;51.862;19.460;2022-08-19T11:10:10;16.17;;;10.10;;
18738;SDS011;9498;51.862;19.460;2022-08-19T11:12:38;22.27;;;9.67;;
18738;SDS011;9498;51.862;19.460;2022-08-19T11:15:07;18.17;;;9.87;;
18738;SDS011;9498;51.862;19.460;2022-08-19T11:17:36;19.07;;;9.67;;
18738;SDS011;9498;51.862;19.460;2022-08-19T11:20:06;20.53;;;9.93;;
18738;SDS011;9498;51.862;19.460;2022-08-19T11:22:33;18.20;;;9.33;;
18738;SDS011;9498;51.862;19.460;2022-08-19T11:25:02;16.10;;;9.23;;
18738;SDS011;9498;51.862;19.460;2022-08-19T11:27:29;17.13;;;8.57;;
18738;SDS011;9498;51.862;19.460;2022-08-19T11:29:56;14.73;;;9.43;;
18738;SDS011;9498;51.862;19.460;2022-08-19T11:32:24;15.37;;;9.40;;
18738;SDS011;9498;51.862;19.460;2022-08-19T11:34:51;16.50;;;9.70;;
18738;SDS011;9498;51.862;19.460;2022-08-19T11:37:19;19.07;;;8.97;;
18738;SDS011;9498;51.862;19.460;2022-08-19T11:39:46;15.37;;;9.10;;
18738;SDS011;9498;51.862;19.460;2022-08-19T11:42:15;17.37;;;8.77;;
18738;SDS011;9498;51.862;19.460;2022-08-19T11:45:02;17.23;;;8.73;;
18738;SDS011;9498;51.862;19.460;2022-08-19T11:47:29;17.57;;;10.27;;
18738;SDS011;9498;51.862;19.460;2022-08-19T11:49:56;13.27;;;8.77;;
18738;SDS011;9498;51.862;19.460;2022-08-19T11:52:24;13.97;;;8.90;;
18738;SDS011;9498;51.862;19.460;2022-08-19T11:54:51;14.30;;;9.70;;
18738;SDS011;9498;51.862;19.460;2022-08-19T11:57:20;11.77;;;8.27;;
18738;SDS011;9498;51.862;19.460;2022-08-19T11:59:48;16.70;;;9.20;;
18738;SDS011;9498;51.862;19.460;2022-08-19T12:02:15;15.53;;;9.00;;
18738;SDS011;9498;51.862;19.460;2022-08-19T12:04:44;18.00;;;8.63;;
18738;SDS011;9498;51.862;19.460;2022-08-19T12:07:11;16.00;;;9.00;;
18738;SDS011;9498;51.862;19.460;2022-08-19T12:09:38;15.27;;;8.90;;
18738;SDS011;9498;51.862;19.460;2022-08-19T12:12:05;18.93;;;9.40;;
18738;SDS011;9498;51.862;19.460;2022-08-19T12:14:35;18.13;;;8.37;;
18738;SDS011;9498;51.862;19.460;2022-08-19T12:17:02;16.33;;;8.50;;
18738;SDS011;9498;51.862;19.460;2022-08-19T12:19:32;13.87;;;9.30;;
18738;SDS011;9498;51.862;19.460;2022-08-19T12:22:00;16.13;;;8.40;;
18738;SDS011;9498;51.862;19.460;2022-08-19T12:24:30;15.17;;;8.97;;
18738;SDS011;9498;51.862;19.460;2022-08-19T12:26:57;16.73;;;8.90;;
18738;SDS011;9498;51.862;19.460;2022-08-19T12:29:26;16.07;;;8.10;;
18738;SDS011;9498;51.862;19.460;2022-08-19T12:31:56;16.23;;;8.60;;
18738;SDS011;9498;51.862;19.460;2022-08-19T12:34:26;17.50;;;8.97;;
18738;SDS011;9498;51.862;19.460;2022-08-19T12:36:55;20.40;;;8.97;;
18738;SDS011;9498;51.862;19.460;2022-08-19T12:39:22;18.80;;;9.30;;
18738;SDS011;9498;51.862;19.460;2022-08-19T12:41:50;16.33;;;9.13;;
18738;SDS011;9498;51.862;19.460;2022-08-19T12:44:17;18.27;;;9.57;;
18738;SDS011;9498;51.862;19.460;2022-08-19T12:46:44;22.67;;;9.13;;
18738;SDS011;9498;51.862;19.460;2022-08-19T12:49:13;20.00;;;8.50;;
18738;SDS011;9498;51.862;19.460;2022-08-19T12:51:40;17.17;;;8.50;;
18738;SDS011;9498;51.862;19.460;2022-08-19T12:54:07;15.23;;;8.43;;
18738;SDS011;9498;51.862;19.460;2022-08-19T12:56:35;16.63;;;8.63;;
18738;SDS011;9498;51.862;19.460;2022-08-19T12:59:03;20.30;;;8.57;;
18738;SDS011;9498;51.862;19.460;2022-08-19T13:01:32;20.30;;;9.13;;
18738;SDS011;9498;51.862;19.460;2022-08-19T13:03:59;17.13;;;8.47;;
18738;SDS011;9498;51.862;19.460;2022-08-19T13:06:27;17.63;;;8.53;;
18738;SDS011;9498;51.862;19.460;2022-08-19T13:08:55;20.37;;;8.87;;
18738;SDS011;9498;51.862;19.460;2022-08-19T13:11:23;17.87;;;8.73;;
18738;SDS011;9498;51.862;19.460;2022-08-19T13:13:50;26.53;;;8.27;;
18738;SDS011;9498;51.862;19.460;2022-08-19T13:16:20;15.73;;;8.03;;
18738;SDS011;9498;51.862;19.460;2022-08-19T13:18:48;14.13;;;7.97;;
18738;SDS011;9498;51.862;19.460;2022-08-19T13:21:17;16.90;;;8.73;;
18738;SDS011;9498;51.862;19.460;2022-08-19T13:23:46;14.47;;;8.70;;
18738;SDS011;9498;51.862;19.460;2022-08-19T13:26:14;15.30;;;9.07;;
18738;SDS011;9498;51.862;19.460;2022-08-19T13:28:43;11.83;;;8.60;;
18738;SDS011;9498;51.862;19.460;2022-08-19T13:31:29;11.40;;;7.87;;
18738;SDS011;9498;51.862;19.460;2022-08-19T13:34:15;17.53;;;8.60;;
18738;SDS011;9498;51.862;19.460;2022-08-19T13:36:43;22.27;;;8.97;;
18738;SDS011;9498;51.862;19.460;2022-08-19T13:39:11;14.93;;;8.73;;
18738;SDS011;9498;51.862;19.460;2022-08-19T13:41:42;14.90;;;8.83;;
18738;SDS011;9498;51.862;19.460;2022-08-19T13:44:13;16.80;;;8.60;;
18738;SDS011;9498;51.862;19.460;2022-08-19T13:46:40;13.67;;;8.03;;
18738;SDS011;9498;51.862;19.460;2022-08-19T13:49:10;18.80;;;8.53;;
18738;SDS011;9498;51.862;19.460;2022-08-19T13:51:37;17.03;;;8.00;;
18738;SDS011;9498;51.862;19.460;2022-08-19T13:54:05;16.33;;;8.30;;
18738;SDS011;9498;51.862;19.460;2022-08-19T13:56:34;18.10;;;9.00;;
18738;SDS011;9498;51.862;19.460;2022-08-19T13:59:02;16.27;;;8.23;;
18738;SDS011;9498;51.862;19.460;2022-08-19T14:01:29;15.60;;;8.77;;
18738;SDS011;9498;51.862;19.460;2022-08-19T14:03:56;18.20;;;9.13;;
18738;SDS011;9498;51.862;19.460;2022-08-19T14:06:24;15.03;;;8.27;;
18738;SDS011;9498;51.862;19.460;2022-08-19T14:08:51;14.20;;;8.13;;
18738;SDS011;9498;51.862;19.460;2022-08-19T14:11:18;15.30;;;8.97;;
18738;SDS011;9498;51.862;19.460;2022-08-19T14:13:49;17.40;;;8.90;;
18738;SDS011;9498;51.862;19.460;2022-08-19T14:16:17;16.37;;;8.97;;
18738;SDS011;9498;51.862;19.460;2022-08-19T14:18:44;20.00;;;9.10;;
18738;SDS011;9498;51.862;19.460;2022-08-19T14:21:14;16.07;;;8.77;;
18738;SDS011;9498;51.862;19.460;2022-08-19T14:23:42;15.07;;;8.53;;
18738;SDS011;9498;51.862;19.460;2022-08-19T14:26:10;21.97;;;8.83;;
18738;SDS011;9498;51.862;19.460;2022-08-19T14:28:38;14.63;;;8.53;;
18738;SDS011;9498;51.862;19.460;2022-08-19T14:31:08;18.50;;;9.10;;
18738;SDS011;9498;51.862;19.460;2022-08-19T14:33:35;18.60;;;8.37;;
18738;SDS011;9498;51.862;19.460;2022-08-19T14:36:03;15.67;;;9.07;;
18738;SDS011;9498;51.862;19.460;2022-08-19T14:38:30;18.77;;;8.73;;